createdAt,value
2018-04-22T00:01:06.042Z,58.90
2018-04-22T00:03:33.505Z,58.90
2018-04-22T00:06:00.955Z,59.50
2018-04-22T00:08:28.408Z,59.10
2018-04-22T00:10:55.867Z,59.20
2018-04-22T00:13:23.326Z,59.30
2018-04-22T00:15:50.775Z,59.40
2018-04-22T00:18:18.236Z,59.30
2018-04-22T00:20:45.697Z,59.30
2018-04-22T00:23:13.173Z,59.40
2018-04-22T00:25:40.620Z,59.50
2018-04-22T00:28:08.070Z,59.90
2018-04-22T00:30:35.525Z,60.40
2018-04-22T00:33:02.991Z,60.90
2018-04-22T00:35:30.448Z,60.40
2018-04-22T00:37:57.903Z,61.10
2018-04-22T00:40:25.354Z,60.60
2018-04-22T00:42:52.810Z,60.40
2018-04-22T00:45:22.157Z,60.00
2018-04-22T00:47:50.632Z,59.60
2018-04-22T00:50:18.851Z,59.60
2018-04-22T00:52:46.303Z,59.50
2018-04-22T00:55:13.758Z,59.80
2018-04-22T00:57:41.211Z,60.40
2018-04-22T01:00:08.655Z,60.80
2018-04-22T01:02:36.107Z,61.10
2018-04-22T01:05:03.561Z,61.40
2018-04-22T01:07:31.020Z,61.80
2018-04-22T01:09:58.479Z,62.50
2018-04-22T01:12:25.933Z,62.90
2018-04-22T01:14:53.404Z,63.50
2018-04-22T01:17:20.848Z,63.10
2018-04-22T01:19:48.301Z,63.20
2018-04-22T01:22:15.753Z,64.00
2018-04-22T01:24:43.211Z,63.30
2018-04-22T01:27:11.434Z,62.20
2018-04-22T01:29:38.887Z,62.00
2018-04-22T01:32:06.335Z,61.00
2018-04-22T01:34:33.779Z,60.90
2018-04-22T01:37:01.234Z,61.00
2018-04-22T01:39:28.683Z,61.00
2018-04-22T01:41:56.140Z,61.30
2018-04-22T01:44:23.592Z,61.00
2018-04-22T01:46:51.047Z,61.70
2018-04-22T01:49:18.496Z,62.10
2018-04-22T01:51:46.709Z,62.50
2018-04-22T01:54:14.155Z,62.40
2018-04-22T01:56:41.596Z,62.70
2018-04-22T01:59:09.040Z,63.20
2018-04-22T02:01:36.495Z,63.80
2018-04-22T02:04:04.729Z,62.60
2018-04-22T02:06:32.171Z,62.50
2018-04-22T02:08:59.621Z,62.90
2018-04-22T02:11:27.072Z,62.50
2018-04-22T02:13:54.520Z,63.30
2018-04-22T02:16:21.972Z,64.10
2018-04-22T02:18:49.438Z,63.50
2018-04-22T02:21:16.888Z,61.80
2018-04-22T02:23:44.348Z,60.90
2018-04-22T02:26:11.807Z,61.50
2018-04-22T02:28:39.261Z,62.70
2018-04-22T02:31:06.729Z,63.60
2018-04-22T02:33:34.180Z,63.90
2018-04-22T02:36:01.643Z,64.40
2018-04-22T02:38:29.098Z,66.00
2018-04-22T02:40:56.547Z,66.00
2018-04-22T02:43:24.003Z,65.80
2018-04-22T02:45:51.456Z,65.80
2018-04-22T02:48:18.919Z,64.30
2018-04-22T02:50:46.389Z,65.20
2018-04-22T02:53:13.841Z,65.00
2018-04-22T02:55:41.287Z,66.30
2018-04-22T02:58:08.744Z,66.60
2018-04-22T03:00:36.223Z,65.70
2018-04-22T03:03:03.679Z,65.50
2018-04-22T03:05:31.140Z,67.00
2018-04-22T03:07:58.597Z,67.30
2018-04-22T03:10:26.047Z,67.70
2018-04-22T03:12:53.501Z,67.30
2018-04-22T03:15:20.964Z,67.60
2018-04-22T03:17:48.410Z,67.40
2018-04-22T03:20:15.897Z,66.00
2018-04-22T03:22:43.331Z,66.50
2018-04-22T03:25:10.781Z,66.20
2018-04-22T03:27:38.223Z,65.80
2018-04-22T03:30:05.679Z,66.00
2018-04-22T03:32:33.132Z,66.10
2018-04-22T03:35:00.596Z,65.50
2018-04-22T03:37:28.049Z,64.70
2018-04-22T03:39:55.503Z,64.30
2018-04-22T03:42:22.950Z,62.90
2018-04-22T03:44:50.402Z,63.10
2018-04-22T03:47:17.859Z,63.70
2018-04-22T03:49:45.317Z,64.20
2018-04-22T03:52:12.793Z,65.40
2018-04-22T03:54:40.243Z,65.50
2018-04-22T03:57:07.701Z,64.80
2018-04-22T03:59:35.163Z,65.50
2018-04-22T04:02:02.617Z,65.30
2018-04-22T04:04:30.074Z,66.70
2018-04-22T04:06:57.537Z,67.30
2018-04-22T04:09:24.982Z,68.10
2018-04-22T04:11:52.432Z,68.40
2018-04-22T04:14:20.667Z,68.80
2018-04-22T04:16:48.121Z,67.90
2018-04-22T04:19:27.572Z,69.20
2018-04-22T04:22:07.492Z,68.50
2018-04-22T04:24:46.504Z,67.50
2018-04-22T04:30:21.160Z,65.60
2018-04-22T04:32:48.611Z,65.70
2018-04-22T04:35:16.072Z,66.90
2018-04-22T04:37:43.528Z,67.70
2018-04-22T04:40:11.185Z,68.40
2018-04-22T04:42:38.635Z,68.00
2018-04-22T04:45:06.100Z,67.30
2018-04-22T04:47:33.560Z,67.40
2018-04-22T04:50:01.016Z,68.80
2018-04-22T04:52:28.471Z,69.00
2018-04-22T04:54:55.944Z,68.00
2018-04-22T04:57:23.402Z,67.60
2018-04-22T04:59:50.850Z,67.70
2018-04-22T05:02:18.517Z,68.00
2018-04-22T05:04:46.003Z,68.90
2018-04-22T05:07:14.212Z,68.90
2018-04-22T05:09:41.676Z,68.80
2018-04-22T05:12:09.130Z,67.90
2018-04-22T05:14:36.582Z,66.70
2018-04-22T05:17:04.039Z,66.80
2018-04-22T05:19:31.513Z,67.60
2018-04-22T05:21:58.989Z,68.10
2018-04-22T05:24:26.439Z,67.90
2018-04-22T05:26:54.291Z,68.60
2018-04-22T05:29:22.136Z,68.20
2018-04-22T05:31:49.599Z,68.70
2018-04-22T05:34:17.062Z,69.00
2018-04-22T05:36:44.516Z,69.20
2018-04-22T05:39:11.971Z,69.40
2018-04-22T05:41:39.440Z,70.00
2018-04-22T05:44:06.896Z,70.20
2018-04-22T05:46:34.376Z,69.60
2018-04-22T05:49:01.832Z,69.00
2018-04-22T05:51:29.288Z,69.20
2018-04-22T05:53:56.740Z,67.90
2018-04-22T05:56:24.224Z,67.00
2018-04-22T05:58:52.467Z,65.60
2018-04-22T06:01:19.926Z,65.60
2018-04-22T06:03:47.386Z,65.10
2018-04-22T06:06:14.836Z,63.90
2018-04-22T06:08:42.289Z,63.50
2018-04-22T06:11:09.745Z,63.00
2018-04-22T06:13:37.201Z,61.80
2018-04-22T06:16:04.653Z,60.10
2018-04-22T06:18:32.103Z,59.10
2018-04-22T06:20:59.550Z,58.30
2018-04-22T06:23:27.007Z,57.70
2018-04-22T06:25:54.495Z,56.90
2018-04-22T06:28:21.992Z,57.60
2018-04-22T06:30:49.404Z,55.80
2018-04-22T06:33:16.855Z,55.60
2018-04-22T06:35:44.312Z,53.50
2018-04-22T06:38:11.777Z,52.70
2018-04-22T06:40:39.232Z,51.70
2018-04-22T06:43:06.687Z,50.00
2018-04-22T06:45:34.138Z,49.40
2018-04-22T06:48:02.350Z,47.70
2018-04-22T06:50:30.572Z,48.80
2018-04-22T06:52:58.023Z,48.80
2018-04-22T06:55:25.478Z,47.60
2018-04-22T06:57:52.931Z,47.00
2018-04-22T07:00:20.387Z,45.80
2018-04-22T07:02:47.838Z,44.10
2018-04-22T07:05:15.280Z,42.50
2018-04-22T07:07:42.725Z,40.70
2018-04-22T07:10:10.176Z,41.70
2018-04-22T07:12:38.396Z,40.10
2018-04-22T07:15:05.854Z,40.10
2018-04-22T07:17:33.316Z,40.30
2018-04-22T07:20:00.781Z,40.90
2018-04-22T07:22:28.239Z,40.10
2018-04-22T07:24:55.719Z,40.60
2018-04-22T07:27:23.193Z,39.90
2018-04-22T07:29:51.407Z,39.30
2018-04-22T07:32:18.961Z,39.20
2018-04-22T07:34:46.407Z,39.30
2018-04-22T07:37:13.873Z,38.80
2018-04-22T07:39:41.332Z,38.80
2018-04-22T07:42:08.788Z,37.80
2018-04-22T07:44:36.275Z,37.40
2018-04-22T07:47:03.700Z,37.10
2018-04-22T07:49:31.156Z,36.50
2018-04-22T07:51:58.614Z,36.90
2018-04-22T07:54:26.089Z,36.60
2018-04-22T07:56:53.551Z,37.10
2018-04-22T07:59:21.014Z,36.70
2018-04-22T08:01:48.473Z,36.50
2018-04-22T08:04:15.924Z,35.80
2018-04-22T08:06:43.389Z,35.20
2018-04-22T08:09:10.836Z,35.30
2018-04-22T08:11:38.291Z,36.00
2018-04-22T08:14:05.744Z,33.30
2018-04-22T08:16:33.214Z,33.20
2018-04-22T08:19:00.667Z,33.00
2018-04-22T08:21:28.132Z,32.80
2018-04-22T08:23:55.577Z,32.80
2018-04-22T08:26:23.044Z,32.20
2018-04-22T08:28:50.500Z,32.10
2018-04-22T08:31:17.950Z,30.50
2018-04-22T08:33:45.412Z,31.90
2018-04-22T08:36:12.858Z,31.30
2018-04-22T08:38:40.315Z,31.50
2018-04-22T08:41:07.761Z,30.80
2018-04-22T08:43:35.219Z,30.70
2018-04-22T08:46:02.691Z,31.70
2018-04-22T08:48:30.148Z,30.60
2018-04-22T08:50:57.592Z,30.00
2018-04-22T08:53:25.053Z,30.60
2018-04-22T08:55:52.555Z,29.60
2018-04-22T08:58:20.726Z,30.80
2018-04-22T09:00:49.181Z,29.70
2018-04-22T09:03:16.628Z,29.70
2018-04-22T09:05:44.079Z,30.30
2018-04-22T09:08:11.532Z,30.00
2018-04-22T09:10:39.004Z,30.20
2018-04-22T09:13:06.470Z,30.00
2018-04-22T09:15:33.916Z,30.00
2018-04-22T09:18:01.362Z,30.20
2018-04-22T09:20:28.812Z,30.70
2018-04-22T09:22:56.267Z,30.30
2018-04-22T09:25:23.707Z,30.10
2018-04-22T09:27:51.164Z,30.30
2018-04-22T09:30:18.623Z,30.00
2018-04-22T09:32:46.084Z,30.00
2018-04-22T09:35:13.539Z,30.20
2018-04-22T09:37:40.995Z,29.90
2018-04-22T09:40:08.456Z,29.80
2018-04-22T09:42:35.927Z,29.90
2018-04-22T09:45:03.386Z,29.80
2018-04-22T09:47:30.849Z,29.30
2018-04-22T09:49:58.369Z,29.50
2018-04-22T09:52:25.793Z,29.50
2018-04-22T09:54:54.021Z,29.10
2018-04-22T09:57:21.500Z,29.10
2018-04-22T09:59:48.959Z,29.40
2018-04-22T10:02:16.423Z,28.80
2018-04-22T10:04:47.379Z,28.50
2018-04-22T10:07:15.619Z,28.10
2018-04-22T10:09:43.067Z,28.10
2018-04-22T10:12:10.532Z,28.40
2018-04-22T10:14:37.971Z,28.60
2018-04-22T10:17:05.433Z,27.80
2018-04-22T10:19:32.875Z,27.90
2018-04-22T10:22:00.343Z,28.10
2018-04-22T10:24:27.792Z,27.40
2018-04-22T10:26:55.241Z,27.70
2018-04-22T10:29:22.716Z,27.50
2018-04-22T10:31:50.163Z,28.60
2018-04-22T10:34:17.620Z,27.90
2018-04-22T10:36:45.708Z,28.10
2018-04-22T10:39:13.162Z,28.10
2018-04-22T10:41:40.613Z,27.20
2018-04-22T10:44:08.108Z,26.90
2018-04-22T10:46:35.557Z,27.90
2018-04-22T10:49:03.017Z,27.80
2018-04-22T10:51:30.475Z,27.70
2018-04-22T10:53:57.919Z,27.00
2018-04-22T10:56:25.385Z,27.30
2018-04-22T10:58:52.832Z,27.70
2018-04-22T11:01:20.292Z,27.20
2018-04-22T11:03:47.737Z,27.00
2018-04-22T11:06:15.194Z,27.30
2018-04-22T11:08:42.643Z,27.20
2018-04-22T11:11:10.097Z,28.00
2018-04-22T11:13:37.556Z,27.70
2018-04-22T11:16:05.014Z,27.00
2018-04-22T11:18:32.473Z,27.70
2018-04-22T11:20:59.916Z,26.70
2018-04-22T11:23:27.358Z,26.70
2018-04-22T11:25:54.809Z,26.40
2018-04-22T11:28:22.272Z,26.60
2018-04-22T11:30:49.737Z,27.00
2018-04-22T11:33:17.228Z,26.70
2018-04-22T11:35:44.676Z,26.20
2018-04-22T11:38:12.124Z,25.70
2018-04-22T11:40:39.575Z,25.90
2018-04-22T11:43:07.041Z,26.20
2018-04-22T11:45:34.488Z,26.50
2018-04-22T11:48:01.941Z,26.30
2018-04-22T11:50:29.394Z,26.80
2018-04-22T11:52:56.838Z,27.30
2018-04-22T11:55:24.285Z,26.70
2018-04-22T11:57:51.730Z,27.30
2018-04-22T12:00:19.179Z,27.60
2018-04-22T12:02:50.427Z,27.20
2018-04-22T12:05:18.643Z,27.50
2018-04-22T12:07:46.089Z,27.40
2018-04-22T12:10:13.565Z,26.50
2018-04-22T12:12:41.046Z,27.90
2018-04-22T12:15:08.507Z,27.60
2018-04-22T12:17:35.972Z,27.40
2018-04-22T12:20:03.404Z,27.30
2018-04-22T12:22:30.860Z,26.90
2018-04-22T12:24:59.212Z,27.40
2018-04-22T12:27:26.663Z,27.80
2018-04-22T12:29:54.104Z,28.10
2018-04-22T12:32:21.557Z,28.40
2018-04-22T12:34:49.004Z,28.40
2018-04-22T12:37:16.456Z,28.00
2018-04-22T12:39:44.668Z,28.00
2018-04-22T12:42:12.114Z,28.00
2018-04-22T12:44:39.552Z,27.60
2018-04-22T12:47:07.003Z,28.20
2018-04-22T12:49:35.241Z,27.60
2018-04-22T12:52:02.683Z,27.60
2018-04-22T12:54:30.138Z,28.00
2018-04-22T12:56:57.579Z,27.40
2018-04-22T12:59:25.051Z,26.80
2018-04-22T13:01:52.499Z,27.50
2018-04-22T13:04:19.952Z,27.30
2018-04-22T13:06:47.424Z,28.00
2018-04-22T13:09:14.867Z,27.30
2018-04-22T13:11:42.309Z,27.20
2018-04-22T13:14:09.817Z,27.50
2018-04-22T13:16:37.236Z,28.70
2018-04-22T13:19:04.681Z,27.70
2018-04-22T13:21:32.138Z,27.50
2018-04-22T13:23:59.600Z,28.10
2018-04-22T13:26:27.051Z,27.90
2018-04-22T13:28:54.509Z,28.40
2018-04-22T13:31:21.976Z,28.40
2018-04-22T13:33:49.422Z,28.90
2018-04-22T13:36:16.881Z,28.00
2018-04-22T13:38:44.324Z,27.90
2018-04-22T13:41:11.787Z,27.90
2018-04-22T13:43:39.244Z,27.90
2018-04-22T13:46:06.699Z,28.10
2018-04-22T13:48:34.151Z,28.50
2018-04-22T13:51:01.662Z,29.00
2018-04-22T13:53:29.119Z,28.30
2018-04-22T13:55:56.575Z,27.90
2018-04-22T13:58:24.028Z,28.10
2018-04-22T14:00:51.489Z,28.40
2018-04-22T14:03:18.938Z,27.80
2018-04-22T14:05:46.384Z,27.20
2018-04-22T14:08:13.839Z,28.00
2018-04-22T14:10:41.289Z,28.10
2018-04-22T14:13:08.742Z,27.90
2018-04-22T14:15:36.191Z,28.10
2018-04-22T14:18:03.640Z,28.20
2018-04-22T14:20:31.082Z,28.40
2018-04-22T14:22:58.535Z,27.60
2018-04-22T14:25:25.991Z,27.60
2018-04-22T14:27:53.449Z,27.80
2018-04-22T14:30:20.913Z,27.30
2018-04-22T14:32:48.363Z,27.20
2018-04-22T14:35:15.815Z,27.20
2018-04-22T14:37:43.271Z,27.40
2018-04-22T14:40:10.726Z,26.40
2018-04-22T14:42:38.186Z,26.50
2018-04-22T14:45:17.518Z,26.70
2018-04-22T14:47:44.971Z,26.60
2018-04-22T14:50:12.424Z,27.30
2018-04-22T14:52:39.875Z,27.00
2018-04-22T14:55:08.102Z,25.80
2018-04-22T14:57:35.547Z,25.80
2018-04-22T15:00:03.051Z,26.90
2018-04-22T15:02:31.272Z,26.20
2018-04-22T15:04:58.720Z,26.10
2018-04-22T15:07:26.171Z,26.30
2018-04-22T15:09:53.633Z,25.70
2018-04-22T15:12:21.078Z,26.60
2018-04-22T15:14:48.523Z,27.00
2018-04-22T15:17:16.745Z,25.80
2018-04-22T15:19:45.004Z,25.50
2018-04-22T15:22:12.474Z,25.50
2018-04-22T15:24:39.936Z,25.60
2018-04-22T15:27:07.392Z,25.60
2018-04-22T15:29:35.605Z,26.00
2018-04-22T15:32:03.831Z,26.00
2018-04-22T15:34:31.282Z,26.00
2018-04-22T15:36:58.748Z,25.20
2018-04-22T15:39:26.198Z,25.30
2018-04-22T15:41:53.661Z,25.90
2018-04-22T15:44:21.104Z,26.20
2018-04-22T15:46:48.568Z,26.30
2018-04-22T15:49:16.028Z,26.00
2018-04-22T15:51:43.510Z,25.70
2018-04-22T15:54:10.929Z,24.80
2018-04-22T15:56:38.380Z,25.30
2018-04-22T15:59:05.837Z,25.10
2018-04-22T16:01:33.284Z,25.40
2018-04-22T16:04:00.734Z,24.80
2018-04-22T16:06:28.191Z,25.10
2018-04-22T16:08:56.412Z,25.80
2018-04-22T16:11:23.872Z,25.80
2018-04-22T16:13:51.329Z,25.30
2018-04-22T16:16:19.539Z,25.30
2018-04-22T16:18:47.757Z,26.20
2018-04-22T16:21:15.242Z,26.20
2018-04-22T16:23:42.686Z,25.60
2018-04-22T16:26:10.166Z,26.10
2018-04-22T16:28:37.630Z,26.30
2018-04-22T16:31:05.078Z,25.20
2018-04-22T16:33:32.540Z,24.90
2018-04-22T16:35:59.990Z,24.90
2018-04-22T16:38:28.358Z,25.50
2018-04-22T16:40:55.805Z,26.60
2018-04-22T16:43:23.265Z,26.20
2018-04-22T16:45:50.724Z,26.80
2018-04-22T16:48:18.183Z,26.70
2018-04-22T16:50:45.631Z,26.70
2018-04-22T16:53:13.089Z,26.60
2018-04-22T16:55:40.569Z,26.20
2018-04-22T16:58:08.004Z,26.90
2018-04-22T17:00:35.461Z,27.00
2018-04-22T17:03:02.928Z,27.00
2018-04-22T17:05:30.381Z,27.00
2018-04-22T17:07:57.832Z,26.80
2018-04-22T17:10:25.287Z,27.00
2018-04-22T17:12:52.738Z,26.70
2018-04-22T17:15:20.175Z,27.00
2018-04-22T17:17:47.632Z,27.20
2018-04-22T17:20:15.855Z,26.70
2018-04-22T17:22:43.304Z,27.20
2018-04-22T17:25:10.766Z,27.90
2018-04-22T17:27:38.225Z,27.60
2018-04-22T17:30:05.672Z,27.40
2018-04-22T17:32:33.127Z,27.60
2018-04-22T17:35:00.580Z,27.70
2018-04-22T17:37:28.035Z,27.40
2018-04-22T17:39:55.492Z,27.40
2018-04-22T17:42:22.952Z,27.60
2018-04-22T17:44:50.419Z,27.60
2018-04-22T17:47:17.890Z,27.90
2018-04-22T17:49:46.108Z,28.50
2018-04-22T17:52:13.560Z,28.50
2018-04-22T17:54:41.024Z,30.80
2018-04-22T17:57:08.483Z,31.80
2018-04-22T17:59:36.701Z,34.60
2018-04-22T18:02:04.928Z,35.30
2018-04-22T18:04:32.377Z,35.20
2018-04-22T18:06:59.833Z,36.40
2018-04-22T18:09:27.277Z,36.60
2018-04-22T18:11:55.513Z,37.60
2018-04-22T18:14:23.703Z,36.80
2018-04-22T18:16:51.103Z,36.40
2018-04-22T18:19:18.567Z,37.60
2018-04-22T18:21:46.024Z,39.20
2018-04-22T18:24:13.477Z,39.20
2018-04-22T18:26:40.918Z,39.60
2018-04-22T18:29:08.383Z,39.90
2018-04-22T18:31:35.835Z,40.30
2018-04-22T18:34:03.296Z,40.50
2018-04-22T18:36:30.757Z,41.10
2018-04-22T18:38:58.220Z,41.50
2018-04-22T18:41:25.688Z,41.80
2018-04-22T18:43:53.142Z,41.60
2018-04-22T18:46:20.591Z,42.10
2018-04-22T18:48:48.847Z,44.10
2018-04-22T18:51:16.309Z,44.00
2018-04-22T18:53:43.759Z,43.70
2018-04-22T18:56:11.200Z,43.70
2018-04-22T18:58:38.656Z,44.70
2018-04-22T19:01:06.107Z,45.30
2018-04-22T19:03:33.572Z,45.60
2018-04-22T19:06:01.079Z,45.10
2018-04-22T19:08:28.508Z,45.10
2018-04-22T19:10:55.967Z,44.90
2018-04-22T19:13:23.414Z,45.30
2018-04-22T19:15:50.868Z,46.00
2018-04-22T19:18:18.320Z,46.60
2018-04-22T19:20:45.776Z,46.90
2018-04-22T19:23:13.219Z,47.40
2018-04-22T19:25:40.688Z,47.80
2018-04-22T19:28:08.137Z,47.90
2018-04-22T19:30:36.361Z,47.40
2018-04-22T19:33:03.807Z,47.80
2018-04-22T19:35:31.257Z,47.90
2018-04-22T19:37:58.723Z,47.80
2018-04-22T19:40:26.168Z,48.10
2018-04-22T19:42:53.620Z,48.30
2018-04-22T19:45:21.066Z,48.20
2018-04-22T19:47:48.519Z,48.00
2018-04-22T19:50:15.957Z,48.60
2018-04-22T19:52:43.405Z,48.70
2018-04-22T19:55:16.151Z,48.70
2018-04-22T19:57:43.601Z,48.80
2018-04-22T20:00:11.917Z,49.70
2018-04-22T20:02:40.131Z,49.00
2018-04-22T20:05:07.575Z,49.00
2018-04-22T20:07:35.033Z,49.20
2018-04-22T20:10:02.486Z,49.00
2018-04-22T20:12:29.937Z,49.20
2018-04-22T20:14:57.391Z,49.50
2018-04-22T20:17:24.844Z,49.50
2018-04-22T20:19:52.296Z,49.70
2018-04-22T20:22:19.752Z,49.60
2018-04-22T20:24:47.207Z,49.80
2018-04-22T20:27:14.657Z,50.10
2018-04-22T20:29:42.874Z,49.70
2018-04-22T20:32:10.321Z,49.60
2018-04-22T20:34:37.776Z,49.70
2018-04-22T20:37:05.454Z,49.70
2018-04-22T20:39:33.715Z,49.90
2018-04-22T20:42:01.171Z,49.80
2018-04-22T20:44:28.627Z,49.50
2018-04-22T20:46:56.079Z,49.40
2018-04-22T20:49:23.546Z,49.70
2018-04-22T20:51:51.000Z,50.00
2018-04-22T20:54:18.449Z,49.70
2018-04-22T20:56:45.905Z,50.00
2018-04-22T20:59:13.359Z,50.10
2018-04-22T21:01:40.818Z,50.00
2018-04-22T21:04:08.271Z,50.10
2018-04-22T21:06:35.733Z,49.90
2018-04-22T21:09:03.199Z,50.40
2018-04-22T21:11:30.652Z,50.30
2018-04-22T21:13:58.110Z,50.40
2018-04-22T21:16:25.563Z,50.80
2018-04-22T21:18:53.011Z,51.30
2018-04-22T21:21:20.477Z,51.40
2018-04-22T21:23:47.936Z,51.50
2018-04-22T21:26:15.392Z,51.10
2018-04-22T21:28:42.879Z,51.50
2018-04-22T21:31:10.318Z,51.50
2018-04-22T21:33:37.777Z,51.60
2018-04-22T21:36:05.232Z,51.80
2018-04-22T21:38:32.696Z,51.90
2018-04-22T21:41:00.167Z,51.70
2018-04-22T21:43:27.612Z,51.80
2018-04-22T21:45:55.070Z,52.30
2018-04-22T21:48:22.521Z,52.00
2018-04-22T21:50:49.977Z,51.80
2018-04-22T21:53:17.426Z,52.00
2018-04-22T21:55:44.880Z,52.20
2018-04-22T21:58:13.101Z,52.50
2018-04-22T22:00:40.546Z,52.40
2018-04-22T22:03:08.002Z,52.60
2018-04-22T22:05:35.447Z,52.60
2018-04-22T22:08:02.904Z,52.60
2018-04-22T22:10:30.356Z,52.70
2018-04-22T22:12:57.811Z,52.60
2018-04-22T22:15:25.264Z,52.40
2018-04-22T22:17:52.711Z,52.50
2018-04-22T22:20:20.150Z,52.50
2018-04-22T22:22:47.609Z,52.60
2018-04-22T22:25:15.060Z,52.80
2018-04-22T22:27:42.512Z,52.90
2018-04-22T22:30:09.966Z,52.90
2018-04-22T22:32:37.497Z,54.30
2018-04-22T22:35:05.714Z,52.90
2018-04-22T22:37:33.177Z,52.80
2018-04-22T22:40:00.619Z,53.00
2018-04-22T22:42:28.062Z,53.30
2018-04-22T22:44:55.527Z,53.10
2018-04-22T22:47:22.971Z,53.10
2018-04-22T22:49:50.431Z,53.20
2018-04-22T22:52:18.012Z,53.40
2018-04-22T22:54:45.464Z,53.70
2018-04-22T22:57:12.915Z,53.80
2018-04-22T22:59:40.380Z,54.10
2018-04-22T23:02:07.828Z,54.30
2018-04-22T23:04:35.287Z,54.40
2018-04-22T23:07:02.739Z,54.50
2018-04-22T23:09:30.196Z,54.80
2018-04-22T23:11:57.654Z,55.10
2018-04-22T23:14:25.113Z,55.10
2018-04-22T23:16:52.572Z,55.10
2018-04-22T23:19:20.023Z,54.90
2018-04-22T23:21:47.474Z,54.90
2018-04-22T23:24:14.925Z,55.30
2018-04-22T23:26:42.380Z,55.30
2018-04-22T23:29:09.829Z,55.30
2018-04-22T23:31:37.283Z,55.30
2018-04-22T23:34:05.496Z,55.10
2018-04-22T23:36:32.953Z,55.00
2018-04-22T23:39:00.399Z,55.20
2018-04-22T23:41:27.853Z,55.30
2018-04-22T23:43:55.331Z,55.30
2018-04-22T23:46:22.779Z,55.20
2018-04-22T23:48:50.247Z,55.40
2018-04-22T23:51:17.705Z,55.70
2018-04-22T23:53:45.157Z,55.90
2018-04-22T23:56:12.609Z,55.90
2018-04-22T23:58:40.048Z,56.00
